Minna Airport

DNMN · Niger, Nigeria

METAR pasados DNMN · Minna Airport

A continuación puedes ver los METAR de los últimos días. Selecciona un año para ver los METAR más antiguos, desde el año 2007 en adelante.

15 de abril de 2024

Hora Código Tiempo Temp. Visibilidad Cielo nuboso Viento METAR/SPECI
03:00
V
26 °C 10 km+ - 050° 050° 5 kt METAR DNAA 150200Z 05005KT CAVOK 26/23 Q1011 NOSIG
02:00
V
26 °C 10 km+ - 020° 020° 4 kt METAR DNAA 150100Z 02004KT CAVOK 26/23 Q1011 NOSIG
01:00
V
26 °C 10 km+ - 360° 360° 0 kt METAR DNAA 150000Z 00000KT CAVOK 26/23 Q1012 NOSIG
00:00
V
26 °C 10 km+ - 090° 090° 5 kt METAR DNAA 142300Z 09005KT CAVOK 26/22 Q1013 NOSIG

14 de abril de 2024

Hora Código Tiempo Temp. Visibilidad Cielo nuboso Viento METAR/SPECI
23:00
V
26 °C 10 km+ - 090° 090° 5 kt METAR DNAA 142200Z 09005KT 9999 TS FEW010 FEW020CB(N-SE) 26/22 Q1013 NOSIG
22:00
V
26 °C 10 km+ - 030° 030° 8 kt METAR DNAA 142100Z 03008KT 9999 TS SCT010 FEW020CB(N-SE) 26/21 Q1013 NOSIG
21:00
M
25 °C 10 km+ 1.000 ft 030° 030° 18 kt METAR DNAA 142000Z 03018KT 9999 -TSRA BKN010 FEW020CB(N-SE) 25/21 Q1014 TEMPO 5000 -TSRA
20:00
V
32 °C 10 km+ - 060° 060° 16 kt METAR DNAA 141900Z 06016KT 9999 TS SCT013 FEW020CB(NE-E) 32/22 Q1013 TEMPO 06018G35KT 5000 -TSRA BKN009 FEW019CB
18:00
V
34 °C 10 km+ - 280° 280° 9 kt METAR DNAA 141700Z 28009KT 9999 FEW015 FEW020CB(NE-E) 34/21 Q1010 TEMPO TS
17:00
V
35 °C 10 km+ - 270° 270° 7 kt METAR DNAA 141600Z 27007KT 9999 SCT016 35/22 Q1009 NOSIG
16:00
V
36 °C 10 km+ - 300° 300° 7 kt METAR DNAA 141500Z 30007KT 9999 SCT016 36/19 Q1009 NOSIG
15:00
M
35 °C 10 km+ 1.500 ft 290° 290° 6 kt METAR DNAA 141400Z 29006KT 9999 BKN015 35/22 Q1010 NOSIG
14:00
M
34 °C 10 km+ 1.400 ft 270° 270° 7 kt METAR DNAA 141300Z 27007KT 9999 BKN014 34/22 Q1011 NOSIG
13:00
V
34 °C 10 km+ - 230° 230° 7 kt METAR DNAA 141200Z 23007KT 9999 SCT014 34/22 Q1012 NOSIG
12:00
V
33 °C 10 km+ - 260° 260° 7 kt METAR DNAA 141100Z 26007KT 9999 FEW013 33/21 Q1013 NOSIG
11:00
V
32 °C 10 km+ - 280° 280° 8 kt METAR DNAA 141000Z 28008KT 9999 FEW012 32/21 Q1014 NOSIG
10:00
V
30 °C 10 km+ - 040° 040° 3 kt METAR DNAA 140900Z 04003KT 9999 FEW011 30/22 Q1014 NOSIG
09:00
V
28 °C 10 km+ - 340° 340° 7 kt METAR DNAA 140800Z 34007KT 9999 SCT009 28/22 Q1014 NOSIG
08:00
I
27 °C 10 km+ 900 ft 330° 330° 8 kt METAR DNAA 140700Z 33008KT 9999 BKN009 27/22 Q1013 NOSIG
07:00
I
26 °C 10 km+ 900 ft 330° 330° 8 kt METAR DNAA 140600Z 33008KT 9999 BKN009 26/22 Q1013 NOSIG
06:00
V
26 °C 10 km+ - 280° 280° 11 kt METAR DNAA 140500Z 28011KT 9999 SCT010 26/21 Q1012 NOSIG
05:00
V
26 °C 10 km+ - 270° 270° 7 kt METAR DNAA 140400Z 27007KT 9999 FEW010 26/22 Q1012 NOSIG
04:00
V
27 °C 10 km+ - 320° 320° 4 kt METAR DNAA 140300Z 32004KT 9999 SCT010 27/21 Q1011 NOSIG
03:00
V
27 °C 10 km+ - 330° 330° 8 kt METAR DNAA 140200Z 33008KT 9999 TS SCT010 FEW020CB 27/20 Q1011 NOSIG
02:00
V
28 °C 10 km+ - 170° 170° 3 kt METAR DNAA 140100Z 17003KT 9999 TS SCT010 FEW020CB 28/22 Q1011 TEMPO 03016G38KT 5000 -TSRA BKN008 FEW018CB
01:00
V
28 °C 10 km+ - 070° 070° 3 kt METAR DNAA 140000Z 07003KT 9999 TS FEW011 FEW020CB 28/22 Q1011 TEMPO 03016G38KT 5000 -TSRA BKN008 FEW018CB
00:00
V
29 °C 10 km+ - 130° 130° 2 kt METAR DNAA 132300Z 13002KT 9999 TS FEW011 FEW020CB 29/20 Q1011 TEMPO 03016G38KT 5000 -TSRA BKN008 FEW018CB

13 de abril de 2024

Hora Código Tiempo Temp. Visibilidad Cielo nuboso Viento METAR/SPECI
23:00
V
30 °C 10 km+ - 130° 130° 2 kt METAR DNAA 132200Z 13002KT 9999 TS FEW012 FEW020CB 30/20 Q1011 TEMPO 03016G38KT 5000 -TSRA BKN008 FEW018CB
22:00
V
30 °C 10 km+ - 020° 020° 8 kt METAR DNAA 132100Z 02008KT 9999 TS FEW012 FEW020CB 30/19 Q1011 TEMPO 03016G38KT 5000 -TSRA BKN008 FEW018CB
21:00
V
33 °C 10 km+ - 200° 200° 11 kt METAR DNAA 132000Z 20011KT 9999 TS FEW013 FEW020CB 33/22 Q1011 TEMPO 03016G38KT 5000 -TSRA BKN008 FEW018CB
20:00
V
33 °C 10 km+ - 200° 200° 6 kt METAR DNAA 131900Z 20006KT 9999 FEW014 FEW020CB 33/21 Q1009 TEMPO TS
19:00
V
34 °C 10 km+ - 190° 190° 8 kt METAR DNAA 131800Z 19008KT 9999 FEW014 FEW020CB 34/21 Q1008 TEMPO TS
18:00
V
35 °C 10 km+ - 240° 240° 6 kt METAR DNAA 131700Z 24006KT 9999 FEW015 FEW020CB(N-NE) 35/22 Q1007 TEMPO TS
16:00
M
36 °C 10 km+ 1.600 ft 240° 240° 7 kt METAR DNAA 131500Z 24007KT 9999 BKN016 36/23 Q1009 NOSIG
15:00
M
35 °C 10 km+ 1.500 ft 260° 260° 6 kt METAR DNAA 131400Z 26006KT 9999 BKN015 35/23 Q1010 NOSIG
14:00
M
34 °C 10 km+ 1.500 ft 220° 220° 9 kt METAR DNAA 131300Z 22009KT 9999 BKN015 34/23 Q1011 NOSIG
12:00
M
33 °C 10 km+ 1.400 ft 140° 140° 7 kt METAR DNAA 131100Z 14007KT 9999 BKN014 33/24 Q1012 NOSIG
11:00
M
32 °C 10 km+ 1.300 ft 220° 220° 8 kt METAR DNAA 131000Z 22008KT 9999 BKN013 32/24 Q1012 NOSIG
10:00
V
31 °C 10 km+ - 210° 210° 6 kt METAR DNAA 130900Z 21006KT 9999 SCT011 31/24 Q1012 NOSIG
08:00
V
28 °C 10 km+ - 190° 190° 6 kt METAR DNAA 130700Z 19006KT CAVOK 28/22 Q1012 NOSIG
07:00
V
28 °C 10 km+ - 190° 190° 5 kt METAR DNAA 130600Z 19005KT CAVOK 28/22 Q1011 NOSIG
06:00
V
28 °C 10 km+ - 200° 200° 6 kt METAR DNAA 130500Z 20006KT CAVOK 28/22 Q1010 NOSIG
05:00
V
29 °C 10 km+ - 200° 200° 8 kt METAR DNAA 130400Z 20008KT CAVOK 29/22 Q1010 NOSIG
04:00
V
29 °C 10 km+ - 180° 180° 9 kt METAR DNAA 130300Z 18009KT CAVOK 29/22 Q1010 NOSIG
03:00
V
29 °C 10 km+ - 170° 170° 4 kt METAR DNAA 130200Z 17004KT CAVOK 29/22 Q1009 NOSIG
02:00
V
29 °C 10 km+ - 360° 360° 0 kt METAR DNAA 130100Z 00000KT CAVOK 29/24 Q1009 NOSIG
01:00
V
29 °C 10 km+ - 360° 360° 0 kt METAR DNAA 130000Z 00000KT CAVOK 29/25 Q1010 NOSIG
00:00
V
30 °C 10 km+ - 360° 360° 0 kt METAR DNAA 122300Z 00000KT CAVOK 30/25 Q1010 NOSIG

12 de abril de 2024

Hora Código Tiempo Temp. Visibilidad Cielo nuboso Viento METAR/SPECI
22:00
V
31 °C 10 km+ - 230° 230° 5 kt METAR DNAA 122100Z 23005KT CAVOK 31/23 Q1010 NOSIG
21:00
V
31 °C 10 km+ - 240° 240° 5 kt METAR DNAA 122000Z 24005KT CAVOK 31/23 Q1010 NOSIG
20:00
V
32 °C 10 km+ - 200° 200° 4 kt METAR DNAA 121900Z 20004KT CAVOK 32/21 Q1009 NOSIG
19:00
V
32 °C 10 km+ - 230° 230° 9 kt METAR DNAA 121800Z 23009KT 9999 FEW013 32/22 Q1009 NOSIG
17:00
V
35 °C 10 km+ - 270° 270° 5 kt METAR DNAA 121600Z 27005KT 9999 FEW015 35/21 Q1008 NOSIG
16:00
V
35 °C 10 km+ - 230° 230° 7 kt METAR DNAA 121500Z 23007KT 9999 SCT015 35/22 Q1009 NOSIG
15:00
V
34 °C 10 km+ - 200° 200° 6 kt METAR DNAA 121400Z 20006KT 9999 SCT014 34/22 Q1010 NOSIG
14:00
V
34 °C 10 km+ - 030° 030° 7 kt METAR DNAA 121300Z 03007KT 9999 SCT014 34/23 Q1010 NOSIG
13:00
V
33 °C 10 km+ - 260° 260° 3 kt METAR DNAA 121200Z 26003KT 9999 SCT013 33/23 Q1012 NOSIG
12:00
V
32 °C 10 km+ - 240° 240° 7 kt METAR DNAA 121100Z 24007KT 9999 SCT012 32/24 Q1013 NOSIG
11:00
M
31 °C 10 km+ 1.200 ft 230° 230° 9 kt METAR DNAA 121000Z 23009KT 9999 BKN012 31/23 Q1013 NOSIG
10:00
M
30 °C 10 km+ 1.100 ft 240° 240° 6 kt METAR DNAA 120900Z 24006KT 9999 BKN011 30/24 Q1014 NOSIG
09:00
I
28 °C 10 km+ 900 ft 240° 240° 7 kt METAR DNAA 120800Z 24007KT 9999 BKN009 28/24 Q1014 NOSIG
08:00
V
28 °C 10 km+ - 240° 240° 4 kt METAR DNAA 120700Z 24004KT 9999 SCT008 28/24 Q1013 NOSIG
07:00
V
28 °C 10 km+ - 250° 250° 4 kt METAR DNAA 120600Z 25004KT 9999 FEW008 28/24 Q1012 NOSIG
Cambiar esta información